Afton, Wisconsin
Current Conditions -  °F | °C
As of 10:45 AM on Thursday 30 Oct 2014 (Local Time) from KJVL Reporting Station
Overcast Overcast  
Wind Chill: 45°   Ceiling: 9000
Heat Index: 45°   Visibility: 7mi
Dew Point: 36°   Wind: 0mph
Humidity: 71%   Direction: NA
Pressure: 30.1"   Gusts: NA
Location:  42.6°N, 89.07°W
Report Text: KJVL 301545Z 00000KT 7SM OVC090 07/02 A3010
Loading
Personal Weather Stations






























Interactive Weather Map
Tropical Storm Tracking
New forecast layout! Learn more

10-Day Weather Forecast

Advertisements
Track Severe Weather on mobile